Time;durP1;ratioP1;P1;durP2;ratioP2;P2;SDS_P1;SDS_P2;PMS_P1;PMS_P2;Temp;Humidity;BMP_temperature;BMP_pressure;BME280_temperature;BME280_humidity;BME280_pressure;Samples;Min_cycle;Max_cycle;Signal;HPM_P1;HPM_P2
2023/04/16 00:00:26;;;;;;;2.90;1.27;;;;;;;15.19;100.00;96050.53;4962059;28;20128;-54
2023/04/16 00:02:55;;;;;;;1.95;1.25;;;;;;;15.61;100.00;96047.19;4971390;28;20084;-51
2023/04/16 00:05:24;;;;;;;1.73;1.15;;;;;;;15.32;100.00;96053.38;4970524;28;20127;-54
2023/04/16 00:07:53;;;;;;;1.20;1.05;;;;;;;14.97;100.00;96054.94;4960601;28;20089;-60
2023/04/16 00:10:22;;;;;;;1.63;0.98;;;;;;;14.97;100.00;96060.25;4965331;28;20082;-54
2023/04/16 00:12:50;;;;;;;2.22;1.27;;;;;;;15.47;100.00;96055.19;4966768;28;20093;-51
2023/04/16 00:15:18;;;;;;;1.92;1.10;;;;;;;15.38;100.00;96055.31;4968177;28;20093;-49
2023/04/16 00:17:46;;;;;;;2.22;1.40;;;;;;;15.19;100.00;96064.63;4967201;28;20089;-52
2023/04/16 00:20:15;;;;;;;2.50;0.98;;;;;;;14.89;100.00;96066.44;4967670;28;20082;-49
2023/04/16 00:22:43;;;;;;;2.50;1.65;;;;;;;15.72;100.00;96061.03;4969088;28;20094;-58
2023/04/16 00:25:13;;;;;;;1.75;1.33;;;;;;;15.33;100.00;96064.81;4966048;28;20081;-54
2023/04/16 00:27:41;;;;;;;3.43;1.93;;;;;;;15.55;100.00;96063.88;4967400;28;20464;-52
2023/04/16 00:30:10;;;;;;;2.83;1.70;;;;;;;15.63;100.00;96065.63;4967921;28;20090;-56
2023/04/16 00:32:38;;;;;;;3.40;2.40;;;;;;;15.23;100.00;96062.44;4968838;28;20153;-57
2023/04/16 00:35:07;;;;;;;3.85;2.05;;;;;;;15.79;100.00;96053.97;4965496;28;20090;-54
2023/04/16 00:37:35;;;;;;;2.70;1.70;;;;;;;15.06;100.00;96060.97;4965168;28;20097;-56
2023/04/16 00:40:05;;;;;;;3.00;1.80;;;;;;;16.04;100.00;96057.13;4966972;28;20495;-57
2023/04/16 00:42:35;;;;;;;5.05;2.47;;;;;;;15.55;100.00;96063.03;4967152;28;20074;-61
2023/04/16 00:45:04;;;;;;;;;;;;;;;15.48;100.00;96064.81;4965356;28;20087;-55
2023/04/16 00:47:32;;;;;;;3.17;1.98;;;;;;;14.95;100.00;96067.56;4966390;28;19965;-54
2023/04/16 00:50:01;;;;;;;3.75;2.17;;;;;;;15.45;100.00;96063.34;4965185;28;20094;-53
2023/04/16 00:52:30;;;;;;;3.90;2.25;;;;;;;15.31;100.00;96059.72;4967800;28;20074;-49
2023/04/16 00:54:58;;;;;;;4.63;3.40;;;;;;;15.62;100.00;96056.84;4966135;28;20093;-51
2023/04/16 00:57:27;;;;;;;2.53;1.90;;;;;;;15.42;100.00;96066.38;4964463;28;20093;-54
2023/04/16 00:59:56;;;;;;;4.70;2.72;;;;;;;15.33;100.00;96067.47;4970013;28;20542;-58
2023/04/16 01:02:25;;;;;;;4.43;2.13;;;;;;;15.22;100.00;96063.44;4967091;28;20089;-55
2023/04/16 01:04:53;;;;;;;4.80;2.22;;;;;;;15.50;100.00;96065.44;4966582;28;20082;-49
2023/04/16 01:07:21;;;;;;;4.53;3.22;;;;;;;16.18;100.00;96058.91;4966799;28;20078;-51
2023/04/16 01:09:50;;;;;;;4.95;2.97;;;;;;;16.01;100.00;96062.81;4966918;28;20082;-54
2023/04/16 01:12:18;;;;;;;4.63;2.97;;;;;;;15.92;100.00;96058.63;4966946;28;20075;-57
2023/04/16 01:14:47;;;;;;;5.65;3.58;;;;;;;16.06;100.00;96063.06;4964922;28;20079;-54
2023/04/16 01:17:16;;;;;;;6.70;4.10;;;;;;;16.02;100.00;96059.97;4964784;28;20093;-51
2023/04/16 01:19:44;;;;;;;5.70;3.43;;;;;;;15.98;100.00;96060.53;4967104;28;20074;-56
2023/04/16 01:22:15;;;;;;;3.35;1.85;;;;;;;15.59;100.00;96062.50;4965622;28;20101;-53
2023/04/16 01:24:43;;;;;;;5.13;2.78;;;;;;;15.93;100.00;96060.25;4966016;28;20089;-51
2023/04/16 01:27:11;;;;;;;6.78;3.95;;;;;;;15.52;100.00;96071.38;4963369;28;20108;-54
2023/04/16 01:29:40;;;;;;;6.75;3.25;;;;;;;15.16;100.00;96074.81;4961019;28;20078;-53
2023/04/16 01:32:08;;;;;;;7.43;4.07;;;;;;;15.78;100.00;96077.06;4965259;28;20956;-52
2023/04/16 01:34:36;;;;;;;6.18;3.00;;;;;;;15.63;100.00;96082.38;4967649;28;20089;-54
2023/04/16 01:37:05;;;;;;;5.80;3.35;;;;;;;16.20;99.68;96080.00;4965797;28;20054;-51
2023/04/16 01:39:35;;;;;;;5.75;3.15;;;;;;;15.90;100.00;96086.22;4964844;28;20070;-51
2023/04/16 01:42:03;;;;;;;5.55;3.60;;;;;;;16.19;99.72;96081.81;4963301;28;20070;-49
2023/04/16 01:44:31;;;;;;;6.18;3.58;;;;;;;15.96;100.00;96083.81;4962554;28;20094;-53
2023/04/16 01:47:00;;;;;;;6.03;3.72;;;;;;;15.86;100.00;96082.31;4964632;28;20093;-49
2023/04/16 01:49:29;;;;;;;9.13;4.55;;;;;;;16.22;100.00;96081.44;4962589;28;20086;-49
2023/04/16 01:51:57;;;;;;;6.55;3.72;;;;;;;15.84;99.28;96083.50;4960919;28;20087;-52
2023/04/16 01:54:25;;;;;;;5.88;3.78;;;;;;;16.27;99.57;96078.22;4957867;28;20514;-55
2023/04/16 01:56:55;;;;;;;6.75;3.47;;;;;;;15.99;100.00;96080.78;4965392;28;20093;-51
2023/04/16 01:59:24;;;;;;;6.53;3.42;;;;;;;16.01;100.00;96079.59;4963523;28;20086;-55
2023/04/16 02:01:52;;;;;;;6.88;4.05;;;;;;;16.68;94.86;96077.56;4955347;28;20090;-58
2023/04/16 02:04:20;;;;;;;7.85;4.57;;;;;;;16.37;97.33;96078.72;4962714;28;20082;-52
2023/04/16 02:06:49;;;;;;;6.22;3.55;;;;;;;16.67;90.44;96075.94;4959890;28;20415;-55
2023/04/16 02:09:17;;;;;;;6.65;3.90;;;;;;;16.37;95.15;96078.72;4963915;28;20089;-55
2023/04/16 02:11:46;;;;;;;5.22;3.38;;;;;;;15.62;100.00;96083.41;4966182;28;20101;-56
2023/04/16 02:14:15;;;;;;;6.78;3.80;;;;;;;15.63;100.00;96078.91;4962107;28;20089;-51
2023/04/16 02:16:43;;;;;;;5.87;3.23;;;;;;;15.03;100.00;96087.88;4965833;28;20082;-49
2023/04/16 02:19:12;;;;;;;6.68;4.10;;;;;;;15.40;100.00;96082.50;4965138;28;20122;-56
2023/04/16 02:21:40;;;;;;;6.57;3.47;;;;;;;15.27;100.00;96084.13;4963168;28;20078;-57
2023/04/16 02:24:08;;;;;;;5.10;3.08;;;;;;;15.71;100.00;96076.16;4963622;28;20105;-52
2023/04/16 02:26:37;;;;;;;6.82;4.18;;;;;;;15.44;100.00;96080.28;4966907;28;20089;-54
2023/04/16 02:29:05;;;;;;;6.40;3.60;;;;;;;15.80;100.00;96077.72;4964921;28;20094;-53
2023/04/16 02:31:35;;;;;;;6.43;3.75;;;;;;;16.26;100.00;96082.72;4964530;28;20078;-52
2023/04/16 02:34:04;;;;;;;6.03;3.97;;;;;;;15.68;100.00;96089.81;4960818;28;20078;-51
2023/04/16 02:36:32;;;;;;;8.07;4.35;;;;;;;15.99;100.00;96086.94;4963085;28;20514;-55
2023/04/16 02:39:01;;;;;;;6.97;4.43;;;;;;;15.86;100.00;96087.63;4963619;28;20071;-56
2023/04/16 02:41:29;;;;;;;6.57;3.95;;;;;;;15.97;100.00;96090.81;4961833;28;20463;-49
2023/04/16 02:43:57;;;;;;;5.38;3.55;;;;;;;15.36;100.00;96096.34;4964328;28;20085;-53
2023/04/16 02:46:26;;;;;;;7.63;4.32;;;;;;;16.01;100.00;96098.22;4959091;28;20097;-48
2023/04/16 02:48:55;;;;;;;5.13;3.47;;;;;;;15.84;100.00;96094.94;4963655;28;20528;-50
2023/04/16 02:51:24;;;;;;;5.53;2.80;;;;;;;15.78;100.00;96105.50;4966709;28;20078;-53
2023/04/16 02:53:53;;;;;;;6.22;3.25;;;;;;;15.73;100.00;96103.41;4960321;28;20087;-49
2023/04/16 02:56:21;;;;;;;7.10;4.05;;;;;;;15.79;100.00;96104.47;4966873;28;20074;-58
2023/04/16 02:58:49;;;;;;;6.47;4.15;;;;;;;15.50;100.00;96102.66;4970647;28;20696;-56
2023/04/16 03:01:17;;;;;;;6.93;4.28;;;;;;;14.94;100.00;96101.25;4967772;28;20090;-58
2023/04/16 03:03:46;;;;;;;5.78;3.60;;;;;;;15.19;100.00;96104.47;4973268;28;20074;-62
2023/04/16 03:06:15;;;;;;;5.25;3.35;;;;;;;15.78;100.00;96101.00;4968472;28;20105;-53
2023/04/16 03:08:44;;;;;;;5.55;3.00;;;;;;;15.62;100.00;96095.84;4962807;28;20082;-58
2023/04/16 03:11:12;;;;;;;4.78;3.55;;;;;;;15.08;100.00;96094.31;4965948;28;20089;-55
2023/04/16 03:13:40;;;;;;;4.22;2.75;;;;;;;15.55;100.00;96098.41;4965357;28;20093;-52
2023/04/16 03:16:09;;;;;;;5.47;3.10;;;;;;;15.41;100.00;96105.38;4962239;28;20101;-51
2023/04/16 03:18:37;;;;;;;4.63;2.72;;;;;;;15.63;100.00;96102.84;4960135;28;20105;-49
2023/04/16 03:21:06;;;;;;;5.55;3.10;;;;;;;15.76;100.00;96110.16;4961914;28;20484;-54
2023/04/16 03:23:35;;;;;;;5.22;3.50;;;;;;;15.96;100.00;96108.56;4969900;28;20074;-55
2023/04/16 03:26:04;;;;;;;5.70;3.38;;;;;;;15.95;100.00;96111.44;4965036;28;22217;-56
2023/04/16 03:28:32;;;;;;;6.68;3.30;;;;;;;16.24;100.00;96110.50;4965178;28;20628;-60
2023/04/16 03:31:00;;;;;;;6.30;3.85;;;;;;;15.74;100.00;96112.19;4965565;28;20541;-53
2023/04/16 03:33:29;;;;;;;3.17;2.10;;;;;;;15.83;100.00;96116.41;4962089;28;20074;-56
2023/04/16 03:35:57;;;;;;;5.28;2.88;;;;;;;15.94;100.00;96117.78;4965781;28;20085;-55
2023/04/16 03:38:26;;;;;;;4.30;2.63;;;;;;;16.45;97.65;96123.00;4968066;28;20070;-52
2023/04/16 03:40:56;;;;;;;3.72;2.50;;;;;;;16.28;98.27;96119.78;4968537;28;20086;-51
2023/04/16 03:43:24;;;;;;;5.37;3.00;;;;;;;16.40;98.90;96118.28;4969955;28;20534;-51
2023/04/16 03:45:52;;;;;;;4.50;3.22;;;;;;;16.05;100.00;96119.94;4967592;28;20522;-53
2023/04/16 03:48:20;;;;;;;5.68;3.15;;;;;;;15.94;100.00;96115.94;4961404;28;20101;-53
2023/04/16 03:50:49;;;;;;;3.45;2.30;;;;;;;16.02;100.00;96125.63;4969738;28;20082;-51
2023/04/16 03:53:17;;;;;;;4.57;2.70;;;;;;;16.26;98.17;96116.50;4964262;28;20523;-49
2023/04/16 03:55:45;;;;;;;5.95;3.47;;;;;;;16.20;100.00;96126.03;4964949;28;20090;-56
2023/04/16 03:58:15;;;;;;;4.63;2.70;;;;;;;16.18;100.00;96124.59;4968559;28;20094;-54
2023/04/16 04:00:43;;;;;;;3.80;2.17;;;;;;;15.42;100.00;96125.66;4965607;28;20078;-52
2023/04/16 04:03:12;;;;;;;5.65;3.30;;;;;;;15.63;100.00;96132.91;4968626;28;20078;-50
2023/04/16 04:05:41;;;;;;;3.08;2.03;;;;;;;15.08;100.00;96130.66;4962767;28;20530;-52
2023/04/16 04:08:11;;;;;;;5.75;2.97;;;;;;;15.66;100.00;96134.41;4967609;28;20467;-53
2023/04/16 04:10:39;;;;;;;5.20;3.00;;;;;;;15.80;100.00;96148.69;4968918;28;20078;-49
2023/04/16 04:13:07;;;;;;;5.25;3.45;;;;;;;16.06;100.00;96138.34;4966206;28;20505;-59
2023/04/16 04:15:37;;;;;;;5.75;3.40;;;;;;;16.46;96.21;96141.47;4970298;28;20074;-49
2023/04/16 04:18:05;;;;;;;5.72;3.40;;;;;;;16.22;96.94;96140.00;4963390;28;20090;-51
2023/04/16 04:20:34;;;;;;;5.38;2.75;;;;;;;16.44;97.67;96145.31;4967613;28;20082;-51
2023/04/16 04:23:02;;;;;;;4.85;2.83;;;;;;;15.76;100.00;96145.56;4963751;28;20110;-56
2023/04/16 04:25:30;;;;;;;4.88;2.45;;;;;;;16.09;99.76;96145.16;4966189;28;20106;-53
2023/04/16 04:27:59;;;;;;;4.70;3.33;;;;;;;16.47;95.41;96147.63;4960404;28;20097;-60
2023/04/16 04:30:27;;;;;;;3.90;2.60;;;;;;;16.38;96.56;96139.75;4966709;28;20086;-54
2023/04/16 04:32:58;;;;;;;7.03;3.78;;;;;;;16.06;100.00;96150.84;4965554;28;20074;-54
2023/04/16 04:35:27;;;;;;;4.57;3.03;;;;;;;16.26;100.00;96149.22;4963107;28;20530;-51
2023/04/16 04:37:55;;;;;;;4.15;2.80;;;;;;;16.32;100.00;96148.50;4965808;28;20513;-53
2023/04/16 04:40:23;;;;;;;5.55;3.70;;;;;;;15.00;100.00;96163.41;4966174;28;20089;-56
2023/04/16 04:42:52;;;;;;;5.32;3.13;;;;;;;16.12;100.00;96150.09;4966413;28;20090;-56
2023/04/16 04:45:20;;;;;;;5.25;3.83;;;;;;;15.38;100.00;96158.06;4967816;28;20129;-51
2023/04/16 04:47:48;;;;;;;4.68;2.65;;;;;;;15.18;100.00;96163.09;4962747;28;20090;-53
2023/04/16 04:50:18;;;;;;;2.75;2.08;;;;;;;15.31;100.00;96151.84;4964618;28;20086;-54
2023/04/16 04:52:46;;;;;;;6.80;3.42;;;;;;;15.14;100.00;96162.66;4967985;28;20074;-54
2023/04/16 04:55:15;;;;;;;4.53;2.80;;;;;;;15.51;100.00;96162.75;4966973;28;20786;-49
2023/04/16 04:57:43;;;;;;;3.85;2.15;;;;;;;15.56;100.00;96165.72;4965393;28;20082;-53
2023/04/16 05:00:12;;;;;;;7.03;3.92;;;;;;;15.58;100.00;96159.19;4962559;28;20510;-54
2023/04/16 05:02:40;;;;;;;5.70;3.70;;;;;;;15.49;100.00;96164.78;4963627;28;20090;-51
2023/04/16 05:05:09;;;;;;;7.28;4.20;;;;;;;15.94;100.00;96162.97;4965848;28;20376;-52
2023/04/16 05:07:39;;;;;;;6.22;3.60;;;;;;;15.97;100.00;96162.63;4966794;28;20427;-52
2023/04/16 05:10:08;;;;;;;7.33;4.87;;;;;;;15.94;100.00;96170.97;4968765;28;20086;-54
2023/04/16 05:12:37;;;;;;;4.95;3.03;;;;;;;15.69;100.00;96181.03;4966930;28;20182;-55
2023/04/16 05:15:06;;;;;;;5.47;2.75;;;;;;;15.77;100.00;96176.47;4965341;28;20104;-54
2023/04/16 05:17:34;;;;;;;4.90;3.10;;;;;;;15.48;100.00;96187.88;4966737;28;20098;-50
2023/04/16 05:20:03;;;;;;;6.07;3.80;;;;;;;15.95;100.00;96189.38;4963849;28;20539;-49
2023/04/16 05:22:31;;;;;;;5.97;3.95;;;;;;;16.43;100.00;96187.09;4966390;28;20567;-53
2023/04/16 05:25:00;;;;;;;6.40;4.18;;;;;;;16.51;95.63;96192.28;4963607;28;20543;-54
2023/04/16 05:27:29;;;;;;;5.13;3.40;;;;;;;16.40;98.47;96195.44;4965806;28;20082;-48
2023/04/16 05:29:57;;;;;;;4.18;2.88;;;;;;;16.36;97.21;96202.16;4966654;28;20089;-52
2023/04/16 05:32:26;;;;;;;6.15;3.63;;;;;;;16.07;100.00;96201.22;4964744;28;20086;-58
2023/04/16 05:34:55;;;;;;;6.35;3.53;;;;;;;16.54;96.25;96207.88;4963544;28;20078;-50
2023/04/16 05:37:23;;;;;;;6.25;3.75;;;;;;;16.79;89.56;96200.41;4967095;28;20083;-48
2023/04/16 05:39:51;;;;;;;5.50;3.72;;;;;;;16.64;91.57;96204.09;4963450;28;20085;-51
2023/04/16 05:42:21;;;;;;;6.20;3.95;;;;;;;17.22;86.63;96196.91;4964145;28;20101;-50
2023/04/16 05:44:50;;;;;;;5.93;3.85;;;;;;;16.61;94.84;96214.09;4962573;28;20097;-54
2023/04/16 05:47:19;;;;;;;4.65;2.75;;;;;;;17.04;83.98;96202.69;4957509;28;20086;-50
2023/04/16 05:49:47;;;;;;;5.85;3.75;;;;;;;17.41;80.19;96201.56;4959290;28;20671;-51
2023/04/16 05:52:15;;;;;;;6.47;4.00;;;;;;;18.09;74.12;96204.47;4970234;28;20093;-51
2023/04/16 05:54:44;;;;;;;5.13;3.00;;;;;;;16.36;96.28;96215.47;4965699;28;20070;-50
2023/04/16 05:57:13;;;;;;;6.28;3.70;;;;;;;17.36;85.33;96206.66;4963021;28;20134;-49
2023/04/16 05:59:43;;;;;;;6.82;3.42;;;;;;;16.73;88.84;96211.78;4964089;28;20078;-54
2023/04/16 06:02:11;;;;;;;6.22;3.53;;;;;;;17.53;78.78;96216.00;4966031;28;20669;-52
2023/04/16 06:04:39;;;;;;;6.57;3.85;;;;;;;17.33;82.86;96217.69;4964192;28;20728;-51
2023/04/16 06:07:08;;;;;;;5.38;3.47;;;;;;;18.04;73.94;96217.59;4961666;28;20550;-55
2023/04/16 06:09:36;;;;;;;5.82;3.55;;;;;;;18.24;71.00;96218.50;4957744;28;20090;-49
2023/04/16 06:12:05;;;;;;;6.00;3.80;;;;;;;17.54;79.98;96220.31;4966767;28;20082;-48
2023/04/16 06:14:33;;;;;;;4.97;3.30;;;;;;;18.36;71.59;96216.09;4962871;28;20074;-55
2023/04/16 06:17:02;;;;;;;4.30;3.17;;;;;;;18.59;70.51;96223.78;4964449;28;20093;-56
2023/04/16 06:19:31;;;;;;;6.10;3.05;;;;;;;17.94;75.00;96227.78;4964883;28;20087;-50
2023/04/16 06:21:59;;;;;;;5.82;4.47;;;;;;;18.55;72.12;96221.69;4966228;28;20538;-49
2023/04/16 06:24:27;;;;;;;6.70;3.75;;;;;;;17.73;76.80;96221.47;4965941;28;20089;-54
2023/04/16 06:26:56;;;;;;;6.03;3.70;;;;;;;17.98;73.52;96229.88;4965412;28;20094;-55
2023/04/16 06:29:24;;;;;;;6.05;3.88;;;;;;;17.90;76.12;96232.69;4962785;28;20082;-51
2023/04/16 06:32:09;;;;;;;6.25;3.58;;;;;;;18.17;74.81;96232.81;4967378;28;20478;-53
2023/04/16 06:34:37;;;;;;;7.22;4.07;;;;;;;17.31;78.55;96241.06;4961448;28;20089;-51
2023/04/16 06:37:06;;;;;;;4.55;3.03;;;;;;;17.95;75.59;96238.25;4962943;28;20125;-51
2023/04/16 06:39:37;;;;;;;5.72;3.58;;;;;;;16.69;87.10;96241.63;4961976;28;20090;-51
2023/04/16 06:42:06;;;;;;;4.30;3.13;;;;;;;17.22;84.96;96247.53;4961636;28;20466;-51
2023/04/16 06:44:35;;;;;;;4.40;3.13;;;;;;;17.75;82.67;96232.75;4962351;28;20082;-53
2023/04/16 06:47:03;;;;;;;6.55;3.03;;;;;;;18.05;76.13;96243.25;4961919;28;20078;-51
2023/04/16 06:49:33;;;;;;;6.38;3.20;;;;;;;17.52;81.64;96241.03;4960745;28;20534;-49
2023/04/16 06:52:01;;;;;;;4.67;2.57;;;;;;;18.05;77.70;96245.09;4965980;28;20091;-54
2023/04/16 06:54:33;;;;;;;4.25;2.90;;;;;;;17.63;80.76;96245.00;4966067;28;20089;-52
2023/04/16 06:57:01;;;;;;;4.43;2.75;;;;;;;17.98;76.28;96247.72;4964270;28;20086;-57
2023/04/16 06:59:29;;;;;;;4.00;2.63;;;;;;;18.66;72.70;96254.00;4958769;28;20090;-54
2023/04/16 07:01:58;;;;;;;4.53;2.67;;;;;;;18.09;74.11;96249.00;4967921;28;20471;-54
2023/04/16 07:04:26;;;;;;;3.28;2.03;;;;;;;18.74;66.40;96253.03;4967791;28;20082;-50
2023/04/16 07:06:56;;;;;;;4.18;2.67;;;;;;;17.68;82.88;96255.06;4968950;28;20078;-51
2023/04/16 07:09:25;;;;;;;3.50;2.30;;;;;;;18.11;71.69;96250.47;4967082;28;20070;-51
2023/04/16 07:11:54;;;;;;;3.08;2.03;;;;;;;18.68;69.10;96246.59;4967698;28;20501;-49
2023/04/16 07:14:22;;;;;;;3.47;2.53;;;;;;;19.81;62.91;96240.59;4967600;28;20097;-53
2023/04/16 07:16:50;;;;;;;2.97;2.10;;;;;;;18.77;71.26;96247.28;4968501;28;20090;-54
2023/04/16 07:19:19;;;;;;;2.85;1.92;;;;;;;18.82;68.43;96252.84;4967263;28;20090;-54
2023/04/16 07:21:47;;;;;;;2.53;2.00;;;;;;;19.10;66.29;96244.69;4966600;28;20091;-53
2023/04/16 07:24:17;;;;;;;2.58;1.70;;;;;;;17.82;80.78;96250.69;4968935;28;20093;-56
2023/04/16 07:26:45;;;;;;;2.10;1.60;;;;;;;18.68;69.51;96246.59;4968124;28;20079;-54
2023/04/16 07:29:13;;;;;;;1.92;1.33;;;;;;;18.17;72.80;96249.69;4967431;28;20079;-49
2023/04/16 07:31:42;;;;;;;2.08;1.42;;;;;;;18.04;74.65;96246.94;4970392;28;20086;-52
2023/04/16 07:34:10;;;;;;;1.83;1.35;;;;;;;19.08;68.70;96245.91;4968201;28;20089;-54
2023/04/16 07:36:38;;;;;;;1.45;1.25;;;;;;;19.49;67.47;96244.94;4967508;28;20097;-56
2023/04/16 07:39:07;;;;;;;1.50;1.13;;;;;;;19.14;68.07;96250.47;4965569;28;20093;-58
2023/04/16 07:41:39;;;;;;;1.10;0.70;;;;;;;18.24;78.84;96242.53;4968518;28;20109;-55
2023/04/16 07:44:07;;;;;;;1.42;1.00;;;;;;;19.23;64.47;96249.22;4967876;28;20116;-53
2023/04/16 07:46:36;;;;;;;1.30;0.75;;;;;;;18.85;66.59;96255.09;4965744;28;20085;-58
2023/04/16 07:49:14;;;;;;;1.00;0.80;;;;;;;18.53;72.95;96261.16;4964991;28;20557;-52
2023/04/16 07:51:42;;;;;;;1.08;0.75;;;;;;;19.04;67.93;96261.53;4966877;28;20094;-51
2023/04/16 07:54:10;;;;;;;0.88;0.60;;;;;;;18.85;69.04;96262.31;4965566;28;20109;-56
2023/04/16 07:56:40;;;;;;;0.75;0.68;;;;;;;19.31;68.02;96257.06;4967835;28;20094;-55
2023/04/16 07:59:09;;;;;;;0.60;0.40;;;;;;;18.19;71.39;96273.50;4968703;28;20085;-55
2023/04/16 08:01:50;;;;;;;0.43;0.40;;;;;;;17.83;75.49;96268.38;4967938;28;21072;-54
2023/04/16 08:04:23;;;;;;;0.80;0.60;;;;;;;18.41;79.11;96274.22;4966996;28;20170;-49
2023/04/16 08:06:52;;;;;;;0.50;0.50;;;;;;;18.32;76.03;96272.75;4967928;28;20079;-54
2023/04/16 08:09:22;;;;;;;0.82;0.70;;;;;;;18.94;68.82;96266.44;4969252;28;20086;-52
2023/04/16 08:11:52;;;;;;;2.28;0.60;;;;;;;19.70;62.40;96268.00;4970563;28;20101;-52
2023/04/16 08:14:20;;;;;;;0.70;0.70;;;;;;;19.78;67.90;96271.28;4969630;28;20090;-58
2023/04/16 08:16:49;;;;;;;0.45;0.45;;;;;;;19.84;67.18;96275.81;4970660;28;20085;-52
2023/04/16 08:19:17;;;;;;;0.90;0.50;;;;;;;19.65;62.66;96280.16;4969155;28;20479;-51
2023/04/16 08:21:45;;;;;;;0.43;0.43;;;;;;;19.16;66.59;96283.13;4959692;28;20097;-57
2023/04/16 08:24:14;;;;;;;0.40;0.40;;;;;;;19.51;62.80;96274.94;4957145;28;20158;-55
2023/04/16 08:26:42;;;;;;;0.93;0.60;;;;;;;19.67;59.88;96282.59;4965406;28;20090;-56
2023/04/16 08:29:12;;;;;;;0.63;0.45;;;;;;;19.76;60.61;96281.38;4961242;28;20086;-57
2023/04/16 08:31:41;;;;;;;0.40;0.40;;;;;;;19.30;63.55;96282.13;4962141;28;22442;-58
2023/04/16 08:34:11;;;;;;;0.47;0.38;;;;;;;18.42;75.20;96286.56;4963606;28;20501;-51
2023/04/16 08:36:40;;;;;;;0.53;0.40;;;;;;;18.93;65.82;96286.19;4957405;28;20094;-57
2023/04/16 08:39:08;;;;;;;0.95;0.50;;;;;;;20.82;60.40;96277.66;4958355;28;20581;-52
2023/04/16 08:41:41;;;;;;;0.35;0.30;;;;;;;20.02;64.31;96285.06;4961676;28;20485;-56
2023/04/16 08:44:14;;;;;;;0.40;0.40;;;;;;;20.89;54.66;96288.31;4962346;28;20089;-59
2023/04/16 08:46:44;;;;;;;0.30;0.30;;;;;;;20.20;53.98;96293.28;4964131;28;20499;-53
2023/04/16 08:49:16;;;;;;;0.53;0.50;;;;;;;21.23;51.41;96289.78;4961393;28;20082;-62
2023/04/16 08:51:50;;;;;;;0.40;0.30;;;;;;;21.19;48.65;96299.28;4959314;28;20767;-52
2023/04/16 08:54:26;;;;;;;0.40;0.40;;;;;;;20.69;53.47;96302.63;4961788;28;20472;-49
2023/04/16 08:56:56;;;;;;;0.45;0.32;;;;;;;21.67;49.37;96301.47;4963642;28;20086;-53
2023/04/16 08:59:26;;;;;;;0.70;0.47;;;;;;;21.12;50.52;96299.34;4956333;28;20557;-55
2023/04/16 09:01:57;;;;;;;0.77;0.68;;;;;;;22.54;45.38;96304.22;4961545;28;20097;-54
2023/04/16 09:04:27;;;;;;;0.52;0.40;;;;;;;23.09;44.70;96293.44;4964540;28;20086;-52
2023/04/16 09:06:56;;;;;;;0.50;0.40;;;;;;;22.15;46.42;96307.09;4964397;28;20086;-49
2023/04/16 09:09:26;;;;;;;0.50;0.50;;;;;;;22.66;43.66;96307.81;4961774;28;20086;-60
2023/04/16 09:11:55;;;;;;;0.40;0.40;;;;;;;22.56;43.76;96307.50;4959952;28;20082;-59
2023/04/16 09:14:25;;;;;;;0.40;0.30;;;;;;;22.07;47.04;96314.59;4964174;28;20526;-52
2023/04/16 09:16:54;;;;;;;0.40;0.30;;;;;;;22.40;46.38;96312.44;4963472;28;20086;-55
2023/04/16 09:19:23;;;;;;;0.32;0.28;;;;;;;22.19;46.18;96315.53;4963646;28;20091;-59
2023/04/16 09:21:51;;;;;;;0.65;0.32;;;;;;;22.14;47.25;96320.72;4960534;28;20082;-55
2023/04/16 09:24:19;;;;;;;0.20;0.20;;;;;;;22.14;47.60;96321.53;4964303;28;20093;-54
2023/04/16 09:26:48;;;;;;;0.43;0.32;;;;;;;21.66;49.89;96321.31;4959164;28;20089;-55
2023/04/16 09:29:33;;;;;;;0.50;0.30;;;;;;;22.37;46.93;96320.13;4961711;28;20070;-50
2023/04/16 09:32:03;;;;;;;0.35;0.20;;;;;;;22.38;46.23;96325.25;4957781;28;20086;-55
2023/04/16 09:34:33;;;;;;;0.20;0.20;;;;;;;21.68;46.10;96319.22;4958154;28;20082;-52
2023/04/16 09:37:16;;;;;;;0.43;0.20;;;;;;;21.97;46.14;96318.59;4957479;28;20093;-54
2023/04/16 09:39:45;;;;;;;0.32;0.20;;;;;;;21.47;45.09;96320.41;4957485;28;20098;-51
2023/04/16 09:42:14;;;;;;;0.30;0.30;;;;;;;22.08;45.43;96318.91;4961708;28;20090;-55
2023/04/16 09:44:44;;;;;;;0.30;0.30;;;;;;;21.98;45.36;96314.84;4957871;28;20095;-50
2023/04/16 09:47:13;;;;;;;0.40;0.28;;;;;;;22.20;45.50;96322.56;4960189;28;20471;-51
2023/04/16 09:49:42;;;;;;;0.50;0.30;;;;;;;22.95;43.29;96312.44;4962470;28;20082;-54
2023/04/16 09:52:13;;;;;;;0.20;0.20;;;;;;;23.00;42.87;96317.16;4958523;28;20094;-59
2023/04/16 09:54:46;;;;;;;0.20;0.20;;;;;;;23.06;42.18;96320.81;4964908;28;20494;-55
2023/04/16 09:57:19;;;;;;;1.48;0.30;;;;;;;23.32;42.22;96325.81;4961391;28;20090;-52
2023/04/16 09:59:52;;;;;;;0.75;0.30;;;;;;;22.21;43.60;96324.19;4964800;28;20078;-50
2023/04/16 10:02:22;;;;;;;0.20;0.20;;;;;;;22.00;43.97;96328.88;4965077;28;20090;-52
2023/04/16 10:04:52;;;;;;;0.35;0.20;;;;;;;23.23;40.70;96327.19;4962645;28;20094;-57
2023/04/16 10:07:21;;;;;;;0.32;0.20;;;;;;;22.59;43.16;96332.06;4963583;28;20097;-55
2023/04/16 10:09:51;;;;;;;0.30;0.30;;;;;;;22.75;41.38;96325.28;4962534;28;20099;-51
2023/04/16 10:12:20;;;;;;;;;;;;;;;22.05;43.88;96333.59;4962698;28;20093;-58
2023/04/16 10:14:49;;;;;;;0.20;0.20;;;;;;;22.78;42.62;96319.47;4965955;28;20011;-53
2023/04/16 10:17:18;;;;;;;0.60;0.30;;;;;;;23.01;41.27;96321.47;4964474;28;20078;-61
2023/04/16 10:19:47;;;;;;;1.63;0.43;;;;;;;23.29;41.55;96331.66;4963475;28;20655;-59
2023/04/16 10:22:15;;;;;;;0.20;0.20;;;;;;;23.95;41.32;96324.50;4963518;28;20082;-56
2023/04/16 10:24:44;;;;;;;0.95;0.40;;;;;;;23.32;43.25;96325.81;4960012;28;20078;-57
2023/04/16 10:27:12;;;;;;;0.32;0.30;;;;;;;23.15;41.62;96327.50;4961076;28;20078;-51
2023/04/16 10:29:40;;;;;;;0.52;0.38;;;;;;;23.89;40.12;96328.13;4962687;28;20101;-53
2023/04/16 10:32:10;;;;;;;0.98;0.30;;;;;;;23.11;40.86;96329.00;4961757;28;20088;-52
2023/04/16 10:34:39;;;;;;;0.65;0.30;;;;;;;23.80;39.69;96330.31;4961935;28;20082;-56
2023/04/16 10:37:07;;;;;;;0.45;0.30;;;;;;;24.19;38.91;96333.41;4961678;28;20079;-54
2023/04/16 10:39:37;;;;;;;0.43;0.40;;;;;;;24.05;38.48;96330.09;4960389;28;20086;-53
2023/04/16 10:42:09;;;;;;;0.30;0.30;;;;;;;23.25;39.64;96333.16;4964186;28;20712;-55
2023/04/16 10:44:38;;;;;;;0.30;0.30;;;;;;;24.27;37.69;96333.06;4964232;28;20074;-55
2023/04/16 10:47:12;;;;;;;0.45;0.32;;;;;;;24.24;39.20;96330.00;4969108;28;20090;-56
2023/04/16 10:49:41;;;;;;;1.42;0.30;;;;;;;25.05;38.21;96320.19;4958180;28;20110;-59
2023/04/16 10:52:11;;;;;;;0.30;0.30;;;;;;;25.45;36.58;96324.75;4959270;28;20194;-57
2023/04/16 10:54:40;;;;;;;0.22;0.20;;;;;;;24.10;38.01;96338.31;4957594;28;20477;-54
2023/04/16 10:57:09;;;;;;;0.20;0.17;;;;;;;25.17;36.85;96331.78;4957902;28;20078;-57
2023/04/16 10:59:39;;;;;;;0.65;0.43;;;;;;;24.53;37.69;96339.88;4959974;28;20567;-55
2023/04/16 11:02:09;;;;;;;1.58;0.30;;;;;;;25.22;36.18;96322.97;4958611;28;20099;-58
2023/04/16 11:04:39;;;;;;;0.25;0.20;;;;;;;25.17;36.10;96331.78;4962659;28;20098;-52
2023/04/16 11:07:15;;;;;;;;;;;;;;;24.38;38.11;96345.72;4961124;28;20500;-56
2023/04/16 11:09:51;;;;;;;0.35;0.20;;;;;;;25.42;35.97;96333.34;4963226;28;19956;-54
2023/04/16 11:12:21;;;;;;;0.20;0.20;;;;;;;24.82;35.90;96334.56;4961990;28;20074;-55
2023/04/16 11:14:50;;;;;;;0.20;0.20;;;;;;;24.23;37.31;96341.84;4962185;28;20094;-56
2023/04/16 11:17:19;;;;;;;0.33;0.30;;;;;;;24.62;37.11;96340.34;4962043;28;20074;-60
2023/04/16 11:19:49;;;;;;;0.68;0.30;;;;;;;23.93;37.26;96351.66;4959876;28;20082;-53
2023/04/16 11:22:20;;;;;;;0.30;0.30;;;;;;;23.60;37.42;96348.59;4958793;28;20089;-53
2023/04/16 11:24:54;;;;;;;0.30;0.20;;;;;;;23.82;37.41;96348.94;4955692;28;20086;-58
2023/04/16 11:27:22;;;;;;;0.20;0.20;;;;;;;22.69;39.35;96345.00;4964187;28;20490;-52
2023/04/16 11:29:57;;;;;;;0.40;0.35;;;;;;;23.87;38.71;96349.06;4959505;28;20090;-56
2023/04/16 11:32:26;;;;;;;0.20;0.20;;;;;;;22.19;39.72;96355.81;4960339;28;20113;-55
2023/04/16 11:34:55;;;;;;;0.20;0.20;;;;;;;22.29;41.31;96348.06;4961160;28;20086;-54
2023/04/16 11:37:32;;;;;;;0.40;0.30;;;;;;;22.84;39.74;96344.59;4958202;28;20074;-48
2023/04/16 11:40:02;;;;;;;0.30;0.30;;;;;;;22.70;38.41;96350.13;4956994;28;20527;-53